Create Custom Reports and Graphics: Custom Report

Kelseyville-South

Current Conditions

12/3/20 8:15 AM (-08:00)
Updated Every 15 Minutes
Temp 34.0 °F   2.1
RH 84 %   1
Dew Pt 29.6 °F   2.2
Wind Spd 1.0 mph   1.0
Wind Dir WNW | 289 °
Wind Gust 3.4 mph   3.4
Solar Rad 113 W/m2   16
Leaf Wet 0.0 mins
BatVolt 14.1 V

Today & Yesterday

Kelseyville-South

12/3/20 8:15 AM (-08:00)
Updated Every 15 Minutes
Daily Max Temp 37.5 °F   4.7
Time of Max Temp 0027
Daily Min Temp 28.6 °F   3.8
Time of Min Temp 0653
Daily Max Wind 4.1 mph   2.7
Time of Max Wind 0451
Max Wind Dir W | 260 °
Daily Rain 0.00 In
Daily ETo 0.000 in   0.000
Daily Leaf Wet Hrs 0.0 hrs
Yesterday's Max Temp 68.5 °F
Yesterday’s Min Temp 24.9 °F
Yesterday's Max Wind 6.1 mph
Yesterday's Rainfall 0.00 In
Yesterday's ETo 0.05 In
Leaf Wet Hrs Yest 0.0 Hours

Last 48 Hours

Kelseyville-South

Hourly Data | America/Los_Angeles
as of 12/3/20 8:26 AM PST
Date & Time Temp (°F) RH (%) Dew Pt (°F) Wet Bulb (°F) Wind Dir (°) Wind Spd (mph) Wind Gust (mph) Wind Gst Dir (°) Solar Rad (W/m2) Leaf Wet (mins) Latest Rain (In) Daily Rain (In) Daily Min Temp (°F) Daily Max Temp (°F) Daily ETo (in) Daily Leaf Wet Hrs (hrs)
12/3/20 - 0800 30.2 89 27.4 29.1 NE | 43 0.0 2.7 NW | 323 27 0.0 0.00 0.00 28.6 37.5 0.000 0.0
12/3/20 - 0700 29.8 88 26.7 28.6 SSW | 210 0.1 2.4 SW | 223 0 0.0 0.00 0.00 28.6 37.5 0.000 0.0
12/3/20 - 0600 32.6 85 28.6 31.0 WSW | 237 0.1 2.7 W | 264 0 0.0 0.00 0.00 30.6 37.5 0.000 0.0
12/3/20 - 0500 34.0 85 29.9 32.4 WSW | 243 0.3 4.1 W | 260 0 0.0 0.00 0.00 33.2 37.5 0.000 0.0
12/3/20 - 0400 34.9 82 30.1 33.0 SE | 137 0.4 2.4 ENE | 78 0 0.0 0.00 0.00 33.5 37.5 0.000 0.0
12/3/20 - 0300 35.9 81 30.8 33.9 SE | 143 0.3 2.4 S | 179 0 0.0 0.00 0.00 33.6 37.5 0.000 0.0
12/3/20 - 0200 34.1 83 29.6 32.3 SSW | 204 0.0 1.7 W | 263 0 0.0 0.00 0.00 33.6 37.5 0.000 0.0
12/3/20 - 0100 36.3 79 30.4 34.0 SSW | 207 0.6 3.8 W | 265 0 0.0 0.00 0.00 34.8 37.5 0.000 0.0
12/3/20 - 0000 35.4 79 29.5 33.1 WSW | 254 0.6 4.8 WNW | 292 0 0.0 0.00 0.00 24.9 68.5 0.049 0.0
12/2/20 - 2300 34.4 78 28.4 32.1 SSW | 198 0.0 2.4 SSW | 198 0 0.0 0.00 0.00 24.9 68.5 0.049 0.0
12/2/20 - 2200 35.0 77 28.5 32.5 N | 0 0.0 0.0 SSW | 212 0 0.0 0.00 0.00 24.9 68.5 0.049 0.0
12/2/20 - 2100 36.2 72 28.1 33.1 SSW | 212 0.1 2.7 SSW | 212 0 0.0 0.00 0.00 24.9 68.5 0.049 0.0
12/2/20 - 2000 40.4 63 28.8 35.8 SSE | 148 0.1 2.4 SE | 126 0 0.0 0.00 0.00 24.9 68.5 0.049 0.0
12/2/20 - 1900 42.3 58 28.6 36.8 S | 169 0.2 2.1 SE | 136 0 0.0 0.00 0.00 24.9 68.5 0.049 0.0
12/2/20 - 1800 47.2 45 26.9 38.9 SSW | 196 0.3 2.4 SE | 130 0 0.0 0.00 0.00 24.9 68.5 0.049 0.0
12/2/20 - 1700 60.6 27 26.2 45.1 NE | 44 0.1 2.7 NE | 55 27 0.0 0.00 0.00 24.9 68.5 0.049 0.0
12/2/20 - 1600 66.7 17 20.1 46.0 NNE | 22 0.1 3.1 NE | 40 241 0.0 0.00 0.00 24.9 68.5 0.049 0.0
12/2/20 - 1500 64.6 18 19.8 45.1 ENE | 62 0.4 4.8 ENE | 60 301 0.0 0.00 0.00 24.9 65.5 0.047 0.0
12/2/20 - 1400 62.2 21 21.9 44.6 ENE | 78 0.3 4.8 ENE | 68 387 0.0 0.00 0.00 24.9 63.3 0.041 0.0
12/2/20 - 1300 58.8 32 28.7 45.1 NE | 45 0.7 6.1 NE | 45 518 0.0 0.00 0.00 24.9 60.1 0.034 0.0
12/2/20 - 1200 55.4 38 30.2 44.0 ENE | 58 0.8 5.4 ENE | 64 513 0.0 0.00 0.00 24.9 57.9 0.024 0.0
12/2/20 - 1100 50.5 47 30.9 41.9 NE | 46 0.2 3.8 NE | 44 448 0.0 0.00 0.00 24.9 52.9 0.014 0.0
12/2/20 - 1000 45.1 57 30.6 39.0 N | 3 0.1 2.4 NE | 39 330 0.0 0.00 0.00 24.9 48.5 0.006 0.0
12/2/20 - 0900 36.0 76 29.1 33.3 N | 0 0.0 0.0 NNE | 26 179 0.0 0.00 0.00 24.9 41.0 0.001 0.0
12/2/20 - 0800 26.9 89 24.2 25.9 N | 0 0.0 0.0 SW | 216 35 0.0 0.00 0.00 24.9 30.9 0.000 0.0
12/2/20 - 0700 25.3 90 22.8 24.4 SW | 216 0.0 1.4 SW | 216 0 0.0 0.00 0.00 24.9 30.5 0.000 0.0
12/2/20 - 0600 25.6 89 22.7 24.5 N | 0 0.0 0.0 SW | 216 0 0.0 0.00 0.00 25.1 30.5 0.000 0.0
12/2/20 - 0500 26.8 88 23.7 25.7 N | 0 0.0 0.0 SW | 216 0 0.0 0.00 0.00 26.0 30.5 0.000 0.0
12/2/20 - 0400 27.4 86 23.9 26.1 N | 0 0.0 0.0 SW | 216 0 0.0 0.00 0.00 26.6 30.5 0.000 0.0
12/2/20 - 0300 27.7 86 24.1 26.4 N | 0 0.0 0.0 SW | 216 0 0.0 0.00 0.00 27.3 30.5 0.000 0.0
12/2/20 - 0200 29.1 84 24.9 27.5 N | 0 0.0 0.0 SW | 216 0 0.0 0.00 0.00 28.1 30.5 0.000 0.0
12/2/20 - 0100 29.7 83 25.2 28.0 N | 0 0.0 0.0 SW | 216 0 0.0 0.00 0.00 29.2 30.5 0.000 0.0
12/2/20 - 0000 31.0 81 25.9 29.1 N | 0 0.0 0.0 SW | 216 0 0.0 0.00 0.00 25.3 65.1 0.051 0.0
12/1/20 - 2300 31.9 80 26.3 29.8 N | 0 0.0 0.0 SW | 216 0 0.0 0.00 0.00 25.3 65.1 0.051 0.0
12/1/20 - 2200 33.4 77 27.1 31.0 N | 0 0.0 0.0 SW | 216 0 0.0 0.00 0.00 25.3 65.1 0.051 0.0
12/1/20 - 2100 36.2 75 29.1 33.4 SW | 219 0.0 2.1 SW | 217 0 0.0 0.00 0.00 25.3 65.1 0.051 0.0
12/1/20 - 2000 37.4 74 29.9 34.4 W | 278 0.0 1.7 WNW | 300 0 0.0 0.00 0.00 25.3 65.1 0.051 0.0
12/1/20 - 1900 42.7 64 31.2 37.9 SE | 129 0.2 3.4 SE | 138 0 0.0 0.00 0.00 25.3 65.1 0.051 0.0
12/1/20 - 1800 46.4 53 30.1 39.6 SSW | 193 0.8 3.1 SSE | 156 0 0.0 0.00 0.00 25.3 65.1 0.051 0.0
12/1/20 - 1700 59.8 31 28.9 45.4 WSW | 245 0.0 2.1 SW | 232 39 0.0 0.00 0.00 25.3 65.1 0.051 0.0
12/1/20 - 1600 63.8 28 29.7 47.4 WNW | 288 0.1 2.7 WNW | 288 203 0.0 0.00 0.00 25.3 65.0 0.051 0.0
12/1/20 - 1500 62.8 31 31.5 47.6 N | 2 0.0 2.4 NNE | 26 350 0.0 0.00 0.00 25.3 63.6 0.049 0.0
12/1/20 - 1400 61.0 36 33.7 47.6 NNE | 17 0.1 4.4 NE | 38 458 0.0 0.00 0.00 25.3 62.1 0.043 0.0
12/1/20 - 1300 58.3 42 35.2 47.1 NE | 34 0.1 4.4 NE | 45 507 0.0 0.00 0.00 25.3 60.2 0.034 0.0
12/1/20 - 1200 54.7 51 37.1 46.3 ENE | 59 0.7 5.8 ENE | 64 507 0.0 0.00 0.00 25.3 56.7 0.024 0.0
12/1/20 - 1100 50.3 59 36.4 43.9 NE | 51 0.6 5.8 ENE | 60 446 0.0 0.00 0.00 25.3 52.2 0.014 0.0
12/1/20 - 1000 45.9 70 36.7 41.9 ENE | 66 0.2 3.4 ENE | 63 331 0.0 0.00 0.00 25.3 48.4 0.006 0.0
12/1/20 - 0900 37.3 85 33.2 35.6 N | 0 0.0 0.0 S | 176 183 0.0 0.00 0.00 25.3 42.7 0.002 0.0
12/1/20 - 0800 27.3 93 25.7 26.6 N | 0 0.0 0.0 SSE | 158 38 0.0 0.00 0.00 25.3 32.0 0.000 0.0
Max 66.7 93 37.1 47.6 - 0.8 6.1 - 518 0.0 0.00 0.00 34.8 68.5 0.051 0.0
Avg 41.6 65 28.3 35.8 - 0.2 2.3 - 124 0.0 0.00 - - - - -
Min 25.3 17 19.8 24.4 - 0.0 0.0 - 0 0.0 0.00 0.00 24.9 30.5 0.000 0.0
Total - - - - - - - - - - 0.00 - - - - -

Last 30 Days

Kelseyville-South

Daily Data | America/Los_Angeles
as of 12/3/20 8:26 AM PST
Date Daily Max Temp (°F) Time of Max Temp Daily Min Temp (°F) Time of Min Temp Daily Rain (In) Monthly Rain (In) Seasonal Rainfall (In) Wind Spd (mph) Daily Max Wind (mph) Time of Max Wind Max Wind Dir (°) Daily ETo (in) 7 Day ETo (in) Daily Solar Rad (Cal/cm2) Dew Pt (°F) Max RH (%) Min RH (%) Daily Leaf Wet Hrs (hrs) Hrs 70-85F (hrs) Hrs > 95F (hrs) GDDs (DL) GDDs (Mx/Mn) Hrs <= 32F (hrs) Hrs <= 28F (hrs) Chilling <=45F (hrs) Chill Hrs 32-45F (hrs) Utah Chilling (Units) Chilling <=45F Seas (hrs) Chill Hrs 32-45 Seas (hrs) Utah Chilling Seas (Units) Degree Hrs (hrs) Max 1 Min Rain (In) Max 1 Min Rain Time Max 15 Min Rain (In) Max 15 Min Precip Time Max 60 Min Rain (In) Max 60 Min Rain Time Bat Volt Min Day (V)
12/2/20 68.5 1534 24.9 0643 0.00 0.00 0.45 0.2 6.1 1207 NE | 45 0.049 0.38 256 26.2 91 15 0.0 0.00 0.00 2.9 0.0 8.1 5.6 15.8 7.6 3.0 383 237 90 1.7 - - - - - - 12.6
12/1/20 65.1 1601 25.3 0647 0.00 0.00 0.45 0.1 5.8 1039 ENE | 60 0.051 0.40 263 29.7 94 25 0.0 0.00 0.00 2.6 0.0 9.6 3.6 15.6 6.0 0.0 367 229 88 0.0 - - - - - - 12.6
11/30/20 67.3 1453 23.3 0724 0.00 0.43 0.45 0.8 11.8 1556 W | 274 0.059 0.41 267 26.8 92 12 0.0 0.00 0.00 3.2 0.0 8.5 4.0 14.6 6.1 0.0 352 223 88 1.8 - - - - - - 12.6
11/29/20 65.0 1532 22.2 0713 0.00 0.43 0.45 0.2 7.1 1450 ENE | 63 0.053 0.40 273 25.3 91 16 0.0 0.00 0.00 2.6 0.0 9.9 7.6 15.6 5.8 0.0 337 217 84 0.0 - - - - - - 12.6
11/28/20 64.5 1530 23.0 0635 0.00 0.43 0.45 0.1 5.8 1316 NE | 52 0.051 0.40 273 24.3 91 16 0.0 0.00 0.00 2.0 0.0 11.2 7.8 16.5 5.3 0.0 322 212 84 0.0 - - - - - - 12.6
11/27/20 64.1 1423 24.4 0719 0.00 0.43 0.45 0.2 7.4 1331 ENE | 59 0.054 0.40 275 20.9 86 11 0.0 0.00 0.00 2.7 0.0 10.4 6.6 15.8 5.3 0.0 305 206 84 0.0 - - - - - - 12.6
11/26/20 60.9 1504 24.1 0620 0.00 0.43 0.45 1.1 16.2 1506 ENE | 62 0.065 0.40 280 19.8 96 8 1.6 0.00 0.00 2.1 0.0 9.0 5.5 15.3 6.3 0.0 289 201 84 0.0 - - - - - - 12.6
11/25/20 56.7 1346 30.1 2349 0.00 0.43 0.45 1.3 17.8 1538 WNW | 288 0.062 0.40 280 33.5 97 31 0.0 0.00 0.00 1.3 0.0 1.2 0.0 13.5 12.3 0.0 274 195 84 0.0 - - - - - - 12.6
11/24/20 65.3 1406 27.8 0708 0.00 0.43 0.45 1.3 10.1 1406 W | 262 0.063 0.38 280 36.0 97 31 4.9 0.00 0.00 3.0 0.0 5.6 0.1 10.7 5.2 5.0 260 182 84 0.0 - - - - - - 12.6
11/23/20 60.8 1443 30.6 0440 0.00 0.43 0.45 0.5 11.5 1523 WNW | 287 0.057 0.34 273 36.1 97 40 6.5 0.00 0.00 2.0 0.0 4.3 0.0 14.5 10.2 5.5 250 177 80 0.0 - - - - - - 12.6
11/22/20 62.4 1525 25.1 0711 0.00 0.43 0.45 0.6 8.4 1625 WNW | 289 0.048 0.33 227 30.2 95 19 0.5 0.00 0.00 2.1 0.0 8.2 4.5 13.1 4.9 4.5 235 167 75 0.0 - - - - - - 12.6
11/21/20 60.1 1521 23.2 0653 0.01 0.43 0.45 0.1 5.1 1405 ENE | 57 0.053 0.32 281 29.2 95 19 2.0 0.00 0.00 1.6 0.0 8.6 7.5 16.8 8.2 0.0 222 162 71 0.0 0.01 0827 0.01 0841 0.01 0926 12.6
11/20/20 59.7 1530 26.6 0712 0.00 0.42 0.44 0.1 5.4 1236 NE | 45 0.056 0.33 295 31.0 97 17 5.0 0.00 0.00 1.4 0.0 8.9 1.8 16.5 7.6 0.0 205 154 66 0.0 - - - - - - 12.6
11/19/20 59.0 1512 33.1 2354 0.01 0.42 0.44 0.4 10.1 1457 ENE | 60 0.060 0.30 292 37.2 99 34 12.2 0.00 0.00 1.8 0.0 0.0 0.0 14.0 14.0 6.0 189 146 66 0.0 0.01 1309 0.01 1323 0.01 1408 12.6
11/18/20 56.8 1124 38.2 2351 0.13 0.41 0.43 2.7 17.2 1211 W | 271 0.045 0.31 205 46.8 98 62 14.8 0.00 0.00 2.2 0.0 0.0 0.0 4.0 4.0 6.5 175 132 60 0.0 0.01 1205 0.03 1145 0.05 1230 12.6
11/17/20 55.1 1251 43.5 0207 0.19 0.28 0.30 1.7 13.2 0219 ESE | 102 0.019 0.32 74 48.0 98 57 12.3 0.00 0.00 2.6 0.0 0.0 0.0 0.8 0.8 4.0 171 128 54 0.0 0.01 1756 0.04 0949 0.08 1014 12.7
11/16/20 67.5 1556 40.2 0028 0.01 0.09 0.11 0.3 5.8 1234 ENE | 63 0.050 0.37 229 46.1 99 51 10.6 0.00 0.00 3.5 3.9 0.0 0.0 3.6 3.6 4.0 170 127 51 2.4 0.01 1457 0.01 1511 0.01 1556 12.6
11/15/20 59.9 1309 31.4 0059 0.00 0.08 0.10 0.2 7.8 1306 NE | 41 0.035 0.38 156 42.4 97 56 3.7 0.00 0.00 2.7 0.0 0.9 0.0 11.4 10.5 4.5 166 124 48 0.0 - - - - - - 12.6
11/14/20 59.2 1436 30.4 0654 0.00 0.08 0.10 1.0 12.1 1330 W | 280 0.063 0.42 277 33.9 97 30 9.1 0.00 0.00 1.5 0.0 2.3 0.0 15.8 13.5 0.0 155 113 44 0.0 - - - - - - 12.6
11/13/20 54.8 1627 36.9 2359 0.08 0.08 0.10 3.4 17.8 1929 W | 274 0.032 0.43 124 41.2 94 57 4.5 0.00 0.00 1.0 0.0 0.0 0.0 6.7 6.7 5.0 139 100 44 0.0 0.01 1550 0.04 1517 0.06 1602 12.6
11/12/20 61.0 1425 21.0 0644 0.00 0.00 0.02 0.9 12.5 1253 W | 267 0.066 0.47 299 26.9 89 24 0.0 0.00 0.00 2.0 0.0 8.0 6.9 12.6 4.6 6.5 132 93 40 0.0 - - - - - - 12.5
11/11/20 57.6 1510 25.1 0545 0.00 0.00 0.02 0.1 6.4 1200 NE | 54 0.051 0.51 268 27.9 94 31 1.5 0.00 0.00 1.4 0.0 9.6 3.1 16.0 6.4 0.0 120 88 35 0.0 - - - - - - 12.6
11/10/20 61.7 1220 24.7 0549 0.00 0.00 0.02 1.4 16.2 1331 WSW | 254 0.075 0.55 308 28.9 88 30 0.0 0.00 0.00 2.7 0.0 7.7 6.7 11.8 4.1 5.0 104 82 35 0.0 - - - - - - 12.6
11/9/20 55.3 1444 19.3 0617 0.00 0.00 0.02 0.5 8.4 1034 ENE | 61 0.059 0.58 306 14.7 80 17 0.0 0.00 0.00 0.8 0.0 10.6 7.7 15.7 5.0 0.0 92 78 31 0.0 - - - - - - 12.5
11/8/20 52.7 1530 26.4 2302 0.00 0.00 0.02 3.2 19.8 0607 WNW | 294 0.072 0.61 300 22.2 72 15 0.0 0.00 0.00 0.2 0.0 3.4 1.1 15.6 12.3 0.0 76 73 31 0.0 - - - - - - 12.6
11/7/20 57.8 1430 32.0 0315 0.00 0.00 0.02 2.4 16.5 1502 W | 270 0.076 0.62 326 33.5 96 35 6.5 0.00 0.00 1.2 0.0 0.0 0.0 12.4 12.4 7.0 61 61 31 0.0 - - - - - - 12.6
11/6/20 56.5 0008 34.9 2107 0.00 0.00 0.02 4.3 24.6 0159 WNW | 292 0.070 0.64 278 37.5 92 44 0.6 0.00 0.00 1.2 0.0 0.0 0.0 5.7 5.7 16.0 48 48 25 0.0 - - - - - - 12.7
11/5/20 83.3 1420 38.6 0659 0.00 0.00 0.02 1.4 19.5 2225 WNW | 283 0.103 0.68 341 42.7 94 16 0.0 6.43 0.00 11.6 11.0 0.0 0.0 6.8 6.8 0.0 43 43 10 89.5 - - - - - - 12.6
11/4/20 79.7 1500 40.2 0701 0.00 0.00 0.02 0.5 9.1 1318 ENE | 67 0.090 0.67 343 38.2 89 27 0.0 6.18 0.00 9.4 10.0 0.0 0.0 7.4 7.4 2.5 36 36 10 69.4 - - - - - - 12.6
11/3/20 80.4 1309 32.9 0650 0.00 0.00 0.02 1.1 13.8 1327 W | 260 0.111 0.68 364 22.7 73 3 0.0 6.02 0.00 9.4 6.6 0.0 0.0 8.0 8.0 3.5 28 28 9 75.4 - - - - - - 12.6
Max 83.3 - 43.5 - 0.19 0.43 - 4.3 24.6 - - 0.111 - 364 48.0 99 62 14.8 6.43 0.00 11.6 11.0 11.2 7.8 16.8 14.0 16.0 - - - 89.5 0.01 - 0.04 - 0.08 - 12.7
Avg - - - - - 0.21 - 1.1 - - - - - - 32.0 - - - 0.62 0.00 2.8 1.0 4.9 2.7 12.1 7.2 3.0 - - - - - - - - - - -
Min 52.7 - 19.3 - 0.00 0.00 - 0.1 5.1 - - 0.019 - 74 14.7 72 3 0.0 0.00 0.00 0.2 0.0 0.0 0.0 0.8 0.8 0.0 - - - 0.0 0.01 - 0.01 - 0.01 - 12.5
Total - - - - - - - - - - - - - - - - - - 18.63 0.00 84.5 31.4 146.1 80.1 362.7 216.6 88.5 - - - - - - - - - - -